Data for 04/08/2005

Time Sea-Level Adjusted Pressure Absolute Pressure Temperature Relative Humidity Dew Point   
(mb) (inHg) (mb) (inHg) (C) (F) (%) (C) (F)
00:05 1004 29.65 833 24.6 8.9 47.9 43 -3 26.7
00:10 1004 29.65 833 24.6 8.9 48.1 40 -3.8 25.2
00:15 1004 29.65 833 24.6 9.5 49.1 42 -2.8 26.9
00:20 1004 29.65 833 24.6 9 48.2 42 -3.1 26.3
00:25 1004 29.65 833 24.6 8.9 48 40 -4.1 24.7
00:30 1004 29.65 833 24.6 9.6 49.2 39 -3.8 25.1
00:35 1004 29.65 833 24.6 9.9 49.8 38 -3.7 25.3
00:40 1004 29.65 833 24.6 10.2 50.4 36 -4.3 24.3
00:45 1004 29.65 833 24.6 10.1 50.2 38 -3.7 25.3
00:50 1004 29.65 833 24.6 9.6 49.2 42 -2.8 26.9
00:55 1004 29.65 833 24.6 8.7 47.6 44 -2.9 26.7
01:00 1004 29.65 833 24.6 8.4 47.1 44 -3.1 26.4
01:05 1004 29.65 833 24.6 8.5 47.3 45 -2.8 27
01:10 1003 29.62 833 24.6 8.3 46.9 44 -3.2 26.3
01:15 1003 29.62 833 24.6 8.7 47.6 41 -3.7 25.3
01:20 1003 29.62 833 24.6 8.9 48.1 40 -3.8 25.2
01:25 1003 29.62 833 24.6 9.3 48.8 40 -3.5 25.7
01:30 1003 29.62 833 24.6 9.5 49.1 40 -3.3 26
01:35 1003 29.62 832 24.57 9.3 48.7 38 -4.3 24.2
01:40 1003 29.62 833 24.6 9.7 49.4 40 -3.2 26.3
01:45 1003 29.62 832 24.57 9.9 49.9 35 -4.8 23.4
01:50 1003 29.62 832 24.57 11.8 53.3 32 -4.5 23.9
01:55 1003 29.62 832 24.57 13.2 55.8 31 -3.5 25.8
02:00 1003 29.62 832 24.57 13.2 55.8 32 -2.9 26.7
02:05 1003 29.62 832 24.57 13 55.5 33 -2.6 27.3
02:10 1003 29.62 832 24.57 13.3 55.9 31 -3.2 26.2
02:15 1003 29.62 832 24.57 13.8 56.8 32 -2.8 27
02:20 1003 29.62 832 24.57 13.8 56.8 32 -2.7 27.1
02:25 1003 29.62 832 24.57 13 55.4 34 -2.3 27.8
02:30 1003 29.62 832 24.57 12.1 53.8 37 -2 28.5
02:35 1003 29.62 832 24.57 10.3 50.6 42 -1.9 28.5
02:40 1003 29.62 832 24.57 9.2 48.6 41 -3.3 26
02:45 1003 29.62 832 24.57 9.3 48.7 41 -3.4 25.9
02:50 1002 29.59 832 24.57 9.8 49.6 39 -3.5 25.6
02:55 1002 29.59 832 24.57 9.8 49.6 40 -3.3 26.1
03:00 1002 29.59 832 24.57 9.9 49.8 39 -3.5 25.8
03:05 1002 29.59 832 24.57 10.3 50.5 36 -4 24.8
03:10 1002 29.59 832 24.57 10.5 50.8 39 -2.8 27
03:15 1002 29.59 832 24.57 10.3 50.6 40 -2.7 27.1
03:20 1002 29.59 832 24.57 10.6 51.1 38 -3.2 26.2
03:25 1002 29.59 832 24.57 11.2 52.2 36 -3.4 25.9
03:30 1002 29.59 832 24.57 10.9 51.6 40 -2.2 28
03:35 1002 29.59 832 24.57 10.4 50.8 39 -2.8 27
03:40 1002 29.59 832 24.57 10.2 50.4 41 -2.3 27.8
03:45 1002 29.59 832 24.57 10.1 50.2 42 -2.2 28
03:50 1002 29.59 831 24.54 10.9 51.7 39 -2.3 27.8
03:55 1002 29.59 831 24.54 11 51.8 39 -2.3 27.9
04:00 1002 29.59 831 24.54 11 51.8 38 -2.7 27.2
04:05 1002 29.59 831 24.54 11.3 52.3 38 -2.4 27.7
04:10 1002 29.59 831 24.54 11.7 53.1 36 -2.7 27.1
04:15 1002 29.59 831 24.54 11.9 53.5 39 -1.6 29.1
04:20 1002 29.59 831 24.54 11.4 52.5 38 -2.3 27.9
04:25 1002 29.59 831 24.54 11.6 52.8 38 -2.1 28.3
04:30 1002 29.59 831 24.54 12.1 53.7 38 -1.9 28.6
04:35 1002 29.59 831 24.54 12.5 54.4 35 -2.4 27.7
04:40 1002 29.59 831 24.54 12.9 55.1 37 -1.5 29.4
04:45 1002 29.59 831 24.54 12.5 54.5 39 -1 30.2
04:50 1002 29.59 831 24.54 12.5 54.6 37 -1.6 29.2
04:55 1002 29.59 831 24.54 12.4 54.3 39 -1 30.1
05:00 1002 29.59 831 24.54 12.1 53.7 41 -0.7 30.8
05:05 1002 29.59 831 24.54 11.7 53.1 41 -1.1 30
05:10 1002 29.59 831 24.54 12 53.5 44 0.2 32.4
05:15 1002 29.59 831 24.54 11.8 53.2 40 -1.4 29.5
05:20 1002 29.59 831 24.54 11.6 52.9 40 -1.3 29.6
05:25 1002 29.59 831 24.54 11.5 52.8 40 -1.4 29.4
05:30 1002 29.59 831 24.54 11.2 52.1 43 -0.9 30.4
05:35 1002 29.59 831 24.54 11 51.8 42 -1.5 29.3
05:40 1002 29.59 831 24.54 11.6 52.8 40 -1.4 29.4
05:45 1002 29.59 831 24.54 11.2 52.1 41 -1.4 29.4
05:50 1002 29.59 831 24.54 11.5 52.6 42 -1 30.2
05:55 1002 29.59 831 24.54 11.4 52.6 42 -1 30.2
06:00 1002 29.59 831 24.54 11.2 52.1 44 -0.7 30.8
06:05 1002 29.59 831 24.54 10.8 51.4 44 -0.8 30.5
06:10 1002 29.59 831 24.54 10.9 51.7 45 -0.4 31.2
06:15 1002 29.59 831 24.54 10.7 51.3 45 -0.8 30.5
06:20 1002 29.59 832 24.57 10.9 51.6 44 -0.7 30.7
06:25 1002 29.59 832 24.57 10.7 51.3 45 -0.6 30.9
06:30 1002 29.59 832 24.57 10.6 51.1 46 -0.6 31
06:35 1002 29.59 832 24.57 10.5 51 44 -1 30.1
06:40 1002 29.59 832 24.57 10.5 51 45 -1 30.2
06:45 1002 29.59 832 24.57 10.4 50.7 44 -1.2 29.8
06:50 1002 29.59 832 24.57 10.1 50.1 45 -1.2 29.9
06:55 1002 29.59 831 24.54 9.8 49.6 46 -1.2 29.9
07:00 1002 29.59 831 24.54 9.8 49.6 46 -1.2 29.9
07:05 1002 29.59 831 24.54 9.9 49.8 47 -0.9 30.4
07:10 1002 29.59 831 24.54 9.9 49.9 46 -1 30.1
07:15 1002 29.59 831 24.54 10.2 50.3 48 -0.3 31.5
07:20 1002 29.59 831 24.54 10.5 50.9 45 -0.8 30.6
07:25 1002 29.59 831 24.54 10.7 51.3 44 -1.1 30
07:30 1002 29.59 831 24.54 10.8 51.4 43 -1.2 29.8
07:35 1002 29.59 831 24.54 10.8 51.5 44 -1 30.2
07:40 1002 29.59 831 24.54 10.5 50.9 47 -0.3 31.4
07:45 1002 29.59 831 24.54 10.2 50.3 46 -0.8 30.5
07:50 1002 29.59 831 24.54 10.3 50.5 48 -0.2 31.6
07:55 1002 29.59 831 24.54 10.3 50.5 47 -0.5 31
08:00 1002 29.59 831 24.54 10.2 50.4 48 -0.2 31.7
08:05 1002 29.59 831 24.54 9.6 49.3 51 -0 31.9
08:10 1002 29.59 831 24.54 9.8 49.6 48 -0.6 30.9
08:15 1002 29.59 831 24.54 10.2 50.4 50 0.2 32.4
08:20 1002 29.59 831 24.54 9.7 49.4 52 0.4 32.7
08:25 1002 29.59 831 24.54 9.4 49 52 -0 32
08:30 1002 29.59 831 24.54 9.4 49 52 0.1 32.1
08:35 1002 29.59 831 24.54 9.6 49.3 52 0.2 32.3
08:40 1002 29.59 831 24.54 9.4 48.8 51 -0.1 31.8
08:45 1002 29.59 831 24.54 9.5 49 51 -0.1 31.9
08:50 1002 29.59 831 24.54 9.7 49.5 50 -0.1 31.9
08:55 1002 29.59 831 24.54 10 49.9 50 0.1 32.2
09:00 1002 29.59 831 24.54 10.1 50.2 51 0.4 32.7
09:05 1002 29.59 831 24.54 10.2 50.3 51 0.5 32.9
09:10 1002 29.59 831 24.54 10.3 50.5 51 0.5 33
09:15 1002 29.59 831 24.54 10.6 51 50 0.7 33.3
09:20 1002 29.59 831 24.54 10.4 50.8 52 1 33.9
09:25 1002 29.59 831 24.54 9.9 49.9 54 1 33.8
09:30 1002 29.59 831 24.54 9.7 49.5 54 1 33.7
09:35 1001 29.56 831 24.54 9.7 49.5 54 0.9 33.7
09:40 1002 29.59 831 24.54 10 50.1 53 1 33.7
09:45 1001 29.56 831 24.54 10.3 50.5 52 0.8 33.5
09:50 1001 29.56 831 24.54 10.4 50.8 54 1.5 34.8
09:55 1001 29.56 831 24.54 10.4 50.7 54 1.5 34.7
10:00 1001 29.56 831 24.54 10.3 50.5 54 1.4 34.5
10:05 1001 29.56 831 24.54 10 49.9 55 1.5 34.7
10:10 1001 29.56 831 24.54 9.7 49.5 56 1.5 34.7
10:15 1001 29.56 831 24.54 9.7 49.5 56 1.5 34.7
10:20 1001 29.56 831 24.54 9.4 49 56 1.1 34
10:25 1001 29.56 831 24.54 9.3 48.7 54 0.6 33
10:30 1001 29.56 831 24.54 9.6 49.2 54 0.8 33.5
10:35 1001 29.56 831 24.54 9.6 49.4 54 0.8 33.5
10:40 1001 29.56 831 24.54 9.7 49.5 54 1 33.7
10:45 1001 29.56 831 24.54 9.8 49.7 53 0.8 33.4
10:50 1002 29.59 831 24.54 10.1 50.2 52 0.9 33.5
10:55 1002 29.59 831 24.54 10.2 50.4 53 1.1 34
11:00 1002 29.59 831 24.54 10.5 50.8 51 0.9 33.6
11:05 1002 29.59 831 24.54 10.4 50.8 52 0.9 33.7
11:10 1002 29.59 831 24.54 10.5 50.9 52 1.2 34.1
11:15 1002 29.59 831 24.54 10.7 51.2 52 1.2 34.1
11:20 1002 29.59 831 24.54 10.8 51.4 53 1.5 34.7
11:25 1002 29.59 831 24.54 10.9 51.6 50 0.9 33.6
11:30 1002 29.59 831 24.54 11.2 52.1 47 0.4 32.8
11:35 1002 29.59 831 24.54 11.2 52.1 49 0.8 33.5
11:40 1002 29.59 831 24.54 11.1 52 49 0.8 33.5
11:45 1002 29.59 831 24.54 10.8 51.5 49 0.6 33.2
11:50 1002 29.59 831 24.54 10.7 51.2 49 0.5 32.9
11:55 1002 29.59 831 24.54 10.7 51.3 49 0.6 33
12:00 1002 29.59 831 24.54 10.8 51.5 49 0.7 33.2
12:05 1002 29.59 831 24.54 11 51.7 49 0.7 33.2
12:10 1002 29.59 831 24.54 11 51.7 49 0.9 33.5
12:15 1002 29.59 831 24.54 10.8 51.4 50 0.7 33.3
12:20 1002 29.59 831 24.54 10.7 51.2 49 0.5 33
12:25 1002 29.59 831 24.54 10.7 51.2 49 0.4 32.8
12:30 1002 29.59 831 24.54 10.6 51.1 51 0.9 33.6
12:35 1002 29.59 831 24.54 10.8 51.4 53 1.6 34.9
12:40 1002 29.59 831 24.54 10.6 51.1 53 1.5 34.6
12:45 1002 29.59 831 24.54 10.7 51.3 52 1.4 34.4
12:50 1002 29.59 831 24.54 10.5 51 55 2 35.6
12:55 1002 29.59 831 24.54 10.3 50.6 56 1.9 35.4
13:00 1002 29.59 831 24.54 10 50.1 57 2 35.6
13:05 1002 29.59 831 24.54 10.2 50.3 54 1.3 34.4
13:10 1002 29.59 831 24.54 10.5 50.8 54 1.5 34.7
13:15 1002 29.59 831 24.54 10.6 51.1 52 1.2 34.2
13:20 1002 29.59 831 24.54 11 51.8 53 1.9 35.4
13:25 1002 29.59 831 24.54 10.8 51.4 54 1.8 35.3
13:30 1002 29.59 831 24.54 10.6 51.1 51 1.1 33.9
13:35 1002 29.59 831 24.54 10.7 51.3 52 1.3 34.3
13:40 1002 29.59 831 24.54 11 51.9 49 0.9 33.6
13:45 1002 29.59 831 24.54 11.4 52.5 50 1.4 34.5
13:50 1002 29.59 831 24.54 11.1 52 51 1.4 34.5
13:55 1002 29.59 831 24.54 11 51.9 50 1 33.7
14:00 1002 29.59 831 24.54 11 51.8 48 0.4 32.6
14:05 1002 29.59 831 24.54 10.8 51.4 49 0.5 33
14:10 1002 29.59 831 24.54 10.6 51.1 48 0.2 32.3
14:15 1002 29.59 831 24.54 10.3 50.6 51 0.8 33.4
14:20 1002 29.59 831 24.54 9.5 49 57 1.3 34.3
14:25 1002 29.59 831 24.54 8.9 48.1 58 1 33.8
14:30 1002 29.59 831 24.54 8.4 47.1 60 1.1 34
14:35 1002 29.59 831 24.54 8.3 46.9 62 1.5 34.6
14:40 1002 29.59 831 24.54 8.2 46.7 68 2.7 36.9
14:45 1002 29.59 831 24.54 7.8 46.1 72 3.2 37.7
14:50 1002 29.59 831 24.54 7.9 46.2 70 2.7 36.9
14:55 1002 29.59 831 24.54 8.1 46.5 66 2.2 36
15:00 1002 29.59 831 24.54 8.6 47.5 64 2.1 35.8
15:05 1002 29.59 831 24.54 8.9 48 61 1.8 35.2
15:10 1002 29.59 831 24.54 9 48.2 58 1.1 34
15:15 1002 29.59 831 24.54 9.2 48.5 58 1.3 34.3
15:20 1002 29.59 831 24.54 9.2 48.6 57 1.2 34.1
15:25 1002 29.59 831 24.54 9.2 48.5 58 1.3 34.3
15:30 1002 29.59 831 24.54 9.4 48.8 57 1.3 34.4
15:35 1002 29.59 831 24.54 9.3 48.8 58 1.4 34.6
15:40 1002 29.59 831 24.54 9 48.1 59 1.4 34.5
15:45 1002 29.59 831 24.54 8.8 47.8 59 1.2 34.1
15:50 1002 29.59 831 24.54 8.8 47.8 59 1.2 34.1
15:55 1002 29.59 831 24.54 8.7 47.6 59 1.2 34.2
16:00 1002 29.59 831 24.54 8.5 47.2 61 1.4 34.4
16:05 1002 29.59 831 24.54 8.5 47.3 60 1.1 34.1
16:10 1002 29.59 831 24.54 8.4 47.1 61 1.3 34.3
16:15 1002 29.59 831 24.54 8.3 47 60 1.1 33.9
16:20 1002 29.59 831 24.54 8 46.4 60 0.8 33.5
16:25 1002 29.59 831 24.54 7.8 46 60 0.6 33.1
16:30 1002 29.59 831 24.54 8 46.4 59 0.6 33
16:35 1002 29.59 831 24.54 8 46.4 58 0.2 32.4
16:40 1002 29.59 831 24.54 7.9 46.1 57 -0.1 31.9
16:45 1002 29.59 831 24.54 7.9 46.2 57 -0.2 31.7
16:50 1002 29.59 831 24.54 7.8 46 57 -0.1 31.8
16:55 1002 29.59 832 24.57 7.4 45.4 60 0.2 32.3
17:00 1003 29.62 832 24.57 7 44.6 60 -0.2 31.7
17:05 1003 29.62 832 24.57 6.8 44.2 63 0.4 32.6
17:10 1003 29.62 832 24.57 6.6 43.8 65 0.5 32.9
17:15 1003 29.62 832 24.57 6.3 43.4 68 0.9 33.6
17:20 1003 29.62 832 24.57 6.3 43.3 67 0.6 33.1
17:25 1003 29.62 832 24.57 6.6 44 64 0.3 32.5
17:30 1003 29.62 832 24.57 6.8 44.2 65 0.7 33.3
17:35 1003 29.62 832 24.57 6.5 43.6 68 1 33.8
17:40 1003 29.62 832 24.57 6.2 43.2 72 1.4 34.6
17:45 1003 29.62 832 24.57 5.9 42.6 76 1.9 35.5
17:50 1003 29.62 832 24.57 5.7 42.3 75 1.7 35.1
17:55 1003 29.62 832 24.57 5.5 41.9 76 1.7 35.1
18:00 1003 29.62 832 24.57 5.4 41.8 76 1.6 34.9
18:05 1003 29.62 832 24.57 5.5 41.8 77 1.7 35.1
18:10 1003 29.62 832 24.57 5.5 41.8 76 1.7 35
18:15 1003 29.62 832 24.57 5.3 41.5 75 1.2 34.2
18:20 1003 29.62 833 24.6 5.1 41.2 78 1.5 34.7
18:25 1003 29.62 833 24.6 4.8 40.6 80 1.6 34.9
18:30 1003 29.62 833 24.6 4.5 40.1 79 1.3 34.3
18:35 1003 29.62 833 24.6 4.3 39.7 81 1.3 34.3
18:40 1003 29.62 833 24.6 4.4 39.8 81 1.4 34.4
18:45 1003 29.62 833 24.6 4.4 40 84 1.9 35.4
18:50 1003 29.62 833 24.6 4.2 39.6 85 1.9 35.5
18:55 1003 29.62 833 24.6 4.1 39.4 85 1.9 35.4
19:00 1003 29.62 833 24.6 4.2 39.5 85 1.8 35.2
19:05 1003 29.62 833 24.6 4.2 39.6 84 1.7 35.1
19:10 1003 29.62 832 24.57 4.2 39.5 83 1.5 34.7
19:15 1003 29.62 832 24.57 4.2 39.6 83 1.6 34.8
19:20 1003 29.62 832 24.57 4.3 39.7 83 1.6 34.9
19:25 1003 29.62 832 24.57 4.3 39.7 81 1.3 34.3
19:30 1003 29.62 832 24.57 4.3 39.8 78 0.9 33.6
19:35 1003 29.62 832 24.57 4.4 39.9 78 0.9 33.6
19:40 1003 29.62 832 24.57 4.6 40.2 76 0.8 33.4
19:45 1003 29.62 832 24.57 4.5 40.2 78 1 33.7
19:50 1003 29.62 832 24.57 4.5 40.1 76 0.6 33
19:55 1003 29.62 832 24.57 4.5 40.1 75 0.4 32.7
20:00 1003 29.62 832 24.57 4.5 40.1 75 0.4 32.6
20:05 1003 29.62 833 24.6 4.5 40.1 74 0.3 32.5
20:10 1003 29.62 833 24.6 4.5 40.1 74 0.3 32.6
20:15 1003 29.62 833 24.6 4.6 40.2 74 0.3 32.6
20:20 1004 29.65 833 24.6 4.5 40.1 74 0.2 32.4
20:25 1004 29.65 833 24.6 4.5 40.2 74 0.4 32.7
20:30 1004 29.65 833 24.6 4.5 40.1 75 0.4 32.7
20:35 1004 29.65 833 24.6 4.4 40 73 0.1 32.1
20:40 1004 29.65 833 24.6 4.6 40.3 73 0.1 32.2
20:45 1004 29.65 833 24.6 4.6 40.4 72 0.1 32.2
20:50 1004 29.65 833 24.6 4.7 40.4 71 -0.1 31.7
20:55 1004 29.65 833 24.6 4.7 40.5 68 -0.6 31
21:00 1004 29.65 833 24.6 4.9 40.8 69 -0.4 31.3
21:05 1004 29.65 833 24.6 4.8 40.6 70 -0.3 31.5
21:10 1004 29.65 833 24.6 4.7 40.4 69 -0.5 31.1
21:15 1004 29.65 833 24.6 4.6 40.2 73 0.2 32.3
21:20 1004 29.65 833 24.6 4.4 39.8 72 -0.2 31.6
21:25 1004 29.65 833 24.6 4.4 40 71 -0.3 31.5
21:30 1004 29.65 833 24.6 4.4 39.9 74 0.1 32.1
21:35 1004 29.65 833 24.6 4.3 39.7 73 -0.2 31.6
21:40 1004 29.65 833 24.6 4.3 39.8 73 -0 31.9
21:45 1004 29.65 833 24.6 4.3 39.8 72 -0.2 31.6
21:50 1004 29.65 833 24.6 4.4 39.9 72 -0.2 31.6
21:55 1004 29.65 833 24.6 4.4 40 73 0 32
22:00 1004 29.65 833 24.6 4.3 39.8 72 -0.2 31.6
22:05 1004 29.65 834 24.63 4.4 39.9 73 0 32.1
22:10 1004 29.65 834 24.63 4.4 39.9 75 0.3 32.5
22:15 1004 29.65 834 24.63 4.3 39.8 73 -0.1 31.8
22:20 1004 29.65 834 24.63 4.4 40 73 -0 31.9
22:25 1004 29.65 834 24.63 4.6 40.2 73 0.1 32.1
22:30 1004 29.65 834 24.63 4.7 40.4 71 -0.1 31.9
22:35 1004 29.65 834 24.63 4.7 40.4 73 0.1 32.3
22:40 1004 29.65 834 24.63 4.5 40.2 73 0.2 32.3
22:45 1004 29.65 834 24.63 4.5 40.2 72 -0.1 31.7
22:50 1004 29.65 834 24.63 4.7 40.5 72 0.1 32.2
22:55 1005 29.68 834 24.63 4.7 40.4 73 0.2 32.3
23:00 1005 29.68 834 24.63 4.7 40.5 72 0.1 32.1
23:05 1005 29.68 834 24.63 4.8 40.7 70 -0.1 31.8
23:10 1005 29.68 834 24.63 4.9 40.8 70 -0.1 31.8
23:15 1005 29.68 834 24.63 4.9 40.9 70 -0.1 31.9
23:20 1005 29.68 834 24.63 4.9 40.8 71 -0 32
23:25 1005 29.68 834 24.63 4.8 40.7 71 -0.1 31.9
23:30 1005 29.68 834 24.63 4.8 40.6 71 0 32
23:35 1005 29.68 834 24.63 4.8 40.6 71 -0 32
23:40 1005 29.68 834 24.63 4.7 40.4 72 0 32
23:45 1005 29.68 834 24.63 4.5 40.1 73 0.2 32.3
23:50 1005 29.68 834 24.63 4.4 39.9 74 0.2 32.4
23:55 1005 29.68 834 24.63 4.2 39.6 74 -0.1 31.9
24:00 1005 29.68 834 24.63 4.3 39.7 74 0 32.1